Main page
METAR-TAF:

METAR-TAF

Airports :

Le Havre – Octeville Airport

Le Havre, France

latitude: 49-31N, longitude: 000-04E, elevation: 100 m

Current weather observation

The report was made 10 minutes ago, at 11:00 UTC
Wind 9 kt from the West
Temperature 17°C
Humidity 63%
Pressure 1020 hPa
Visibility 10 km or more
Few clouds at a height of 2200 ft
Broken clouds at a height of 6800 ft

METAR: LFOH 011100Z AUTO 26009KT 9999 FEW022 BKN068 17/10 Q1020 NOSIG

Time: 13:10 (11:10 UTC)

Forecast

The report was made 6 hours and 10 minutes ago, at 05:00 UTC
Forecast valid from 01 at 06 UTC to 02 at 06 UTC
Wind 10 kt from the West/Southwest
Visibility 10 km or more
Few clouds at a height of 1200 ft
Scattered clouds at a height of 6000 ft
Becoming
from 01 at 15 UTC to 01 at 17 UTC
Wind 5 kt from the Northwest

TAF: LFOH 010500Z 0106/0206 24010KT 9999 FEW012 SCT060 BECMG 0115/0117 32005KT

Weather observations and forecasts of more than 4000 airports (METAR and TAF reports).

The available stations are represented by yellow and red dots on the map.

Hover mouse over dot to see the name of the station.

Then click to see weather observations and forecasts.

To change the map : click on the green buttons with a black cross to zoom in, on the green button with a dash to zoom out, or on the green arrows for adjacent maps.


METAR-TAF: